sensor_id;sensor_type;location;lat;lon;timestamp;temperature;humidity
71084;DHT22;58741;52.672;13.548;2023-02-10T00:01:08;0.40;91.30
71084;DHT22;58741;52.672;13.548;2023-02-10T00:03:34;0.40;91.40
71084;DHT22;58741;52.672;13.548;2023-02-10T00:06:01;0.40;91.30
71084;DHT22;58741;52.672;13.548;2023-02-10T00:08:27;0.40;91.30
71084;DHT22;58741;52.672;13.548;2023-02-10T00:11:00;0.30;91.20
71084;DHT22;58741;52.672;13.548;2023-02-10T00:13:26;0.40;91.20
71084;DHT22;58741;52.672;13.548;2023-02-10T00:15:52;0.30;91.10
71084;DHT22;58741;52.672;13.548;2023-02-10T00:18:17;0.30;91.20
71084;DHT22;58741;52.672;13.548;2023-02-10T00:20:43;0.30;91.20
71084;DHT22;58741;52.672;13.548;2023-02-10T00:23:09;0.20;91.40
71084;DHT22;58741;52.672;13.548;2023-02-10T00:25:35;0.20;91.50
71084;DHT22;58741;52.672;13.548;2023-02-10T00:28:01;0.20;91.30
71084;DHT22;58741;52.672;13.548;2023-02-10T00:30:27;0.20;91.40
71084;DHT22;58741;52.672;13.548;2023-02-10T00:32:52;0.20;91.20
71084;DHT22;58741;52.672;13.548;2023-02-10T00:35:18;0.20;91.40
71084;DHT22;58741;52.672;13.548;2023-02-10T00:37:44;0.20;91.30
71084;DHT22;58741;52.672;13.548;2023-02-10T00:40:09;0.10;91.30
71084;DHT22;58741;52.672;13.548;2023-02-10T00:42:35;0.10;91.50
71084;DHT22;58741;52.672;13.548;2023-02-10T00:45:03;0.10;91.40
71084;DHT22;58741;52.672;13.548;2023-02-10T00:47:29;0.10;91.80
71084;DHT22;58741;52.672;13.548;2023-02-10T00:49:54;0.10;91.70
71084;DHT22;58741;52.672;13.548;2023-02-10T00:52:21;0.10;92.00
71084;DHT22;58741;52.672;13.548;2023-02-10T00:54:47;0.10;91.70
71084;DHT22;58741;52.672;13.548;2023-02-10T00:57:13;0.10;92.00
71084;DHT22;58741;52.672;13.548;2023-02-10T00:59:38;0.20;91.90
71084;DHT22;58741;52.672;13.548;2023-02-10T01:02:04;0.20;91.90
71084;DHT22;58741;52.672;13.548;2023-02-10T01:04:30;0.20;91.70
71084;DHT22;58741;52.672;13.548;2023-02-10T01:06:55;0.20;91.70
71084;DHT22;58741;52.672;13.548;2023-02-10T01:09:21;0.20;91.50
71084;DHT22;58741;52.672;13.548;2023-02-10T01:11:47;0.20;91.50
71084;DHT22;58741;52.672;13.548;2023-02-10T01:14:13;0.20;91.90
71084;DHT22;58741;52.672;13.548;2023-02-10T01:16:39;0.20;92.00
71084;DHT22;58741;52.672;13.548;2023-02-10T01:19:07;0.20;92.20
71084;DHT22;58741;52.672;13.548;2023-02-10T01:21:34;0.20;91.80
71084;DHT22;58741;52.672;13.548;2023-02-10T01:24:02;0.20;91.80
71084;DHT22;58741;52.672;13.548;2023-02-10T01:26:30;0.10;92.00
71084;DHT22;58741;52.672;13.548;2023-02-10T01:28:57;0.10;91.80
71084;DHT22;58741;52.672;13.548;2023-02-10T01:31:22;0.10;92.00
71084;DHT22;58741;52.672;13.548;2023-02-10T01:33:51;0.10;92.10
71084;DHT22;58741;52.672;13.548;2023-02-10T01:36:19;0.10;92.30
71084;DHT22;58741;52.672;13.548;2023-02-10T01:38:45;0.10;92.30
71084;DHT22;58741;52.672;13.548;2023-02-10T01:41:12;0.00;92.40
71084;DHT22;58741;52.672;13.548;2023-02-10T01:46:50;-0.10;92.50
71084;DHT22;58741;52.672;13.548;2023-02-10T01:49:18;-0.10;92.80
71084;DHT22;58741;52.672;13.548;2023-02-10T01:51:57;-0.10;92.80
71084;DHT22;58741;52.672;13.548;2023-02-10T01:54:32;-0.10;92.70
71084;DHT22;58741;52.672;13.548;2023-02-10T01:57:01;-0.10;93.00
71084;DHT22;58741;52.672;13.548;2023-02-10T01:59:30;-0.20;93.30
71084;DHT22;58741;52.672;13.548;2023-02-10T02:01:57;-0.20;93.10
71084;DHT22;58741;52.672;13.548;2023-02-10T02:04:24;-0.20;92.90
71084;DHT22;58741;52.672;13.548;2023-02-10T02:06:49;-0.30;92.70
71084;DHT22;58741;52.672;13.548;2023-02-10T02:09:15;-0.30;92.90
71084;DHT22;58741;52.672;13.548;2023-02-10T02:14:53;-0.40;93.30
71084;DHT22;58741;52.672;13.548;2023-02-10T02:17:27;-0.40;93.30
71084;DHT22;58741;52.672;13.548;2023-02-10T02:26:05;-0.50;94.40
71084;DHT22;58741;52.672;13.548;2023-02-10T02:28:39;-0.50;94.30
71084;DHT22;58741;52.672;13.548;2023-02-10T02:31:41;-0.50;95.00
71084;DHT22;58741;52.672;13.548;2023-02-10T02:36:40;-0.40;96.10
71084;DHT22;58741;52.672;13.548;2023-02-10T02:39:07;-0.40;95.40
71084;DHT22;58741;52.672;13.548;2023-02-10T02:41:33;-0.40;96.10
71084;DHT22;58741;52.672;13.548;2023-02-10T02:44:01;-0.40;95.80
71084;DHT22;58741;52.672;13.548;2023-02-10T02:46:46;-0.40;95.10
71084;DHT22;58741;52.672;13.548;2023-02-10T02:49:26;-0.40;95.20
71084;DHT22;58741;52.672;13.548;2023-02-10T02:52:02;-0.40;95.10
71084;DHT22;58741;52.672;13.548;2023-02-10T02:54:51;-0.40;95.40
71084;DHT22;58741;52.672;13.548;2023-02-10T02:57:50;-0.40;95.70
71084;DHT22;58741;52.672;13.548;2023-02-10T03:00:24;-0.40;96.00
71084;DHT22;58741;52.672;13.548;2023-02-10T03:02:52;-0.30;95.60
71084;DHT22;58741;52.672;13.548;2023-02-10T03:05:23;-0.30;95.80
71084;DHT22;58741;52.672;13.548;2023-02-10T03:07:53;-0.30;95.90
71084;DHT22;58741;52.672;13.548;2023-02-10T03:10:18;-0.20;96.40
71084;DHT22;58741;52.672;13.548;2023-02-10T03:12:44;-0.20;96.40
71084;DHT22;58741;52.672;13.548;2023-02-10T03:15:10;-0.20;96.80
71084;DHT22;58741;52.672;13.548;2023-02-10T03:17:36;-0.10;96.60
71084;DHT22;58741;52.672;13.548;2023-02-10T03:20:02;-0.10;96.50
71084;DHT22;58741;52.672;13.548;2023-02-10T03:22:28;-0.10;96.90
71084;DHT22;58741;52.672;13.548;2023-02-10T03:24:53;-0.10;96.80
71084;DHT22;58741;52.672;13.548;2023-02-10T03:27:19;0.00;96.80
71084;DHT22;58741;52.672;13.548;2023-02-10T03:29:44;0.00;96.60
71084;DHT22;58741;52.672;13.548;2023-02-10T03:32:11;0.00;97.40
71084;DHT22;58741;52.672;13.548;2023-02-10T03:34:36;0.10;97.10
71084;DHT22;58741;52.672;13.548;2023-02-10T03:37:02;0.10;96.70
71084;DHT22;58741;52.672;13.548;2023-02-10T03:39:27;0.10;96.80
71084;DHT22;58741;52.672;13.548;2023-02-10T03:41:53;0.10;96.90
71084;DHT22;58741;52.672;13.548;2023-02-10T03:44:19;0.10;96.80
71084;DHT22;58741;52.672;13.548;2023-02-10T03:46:44;0.10;96.70
71084;DHT22;58741;52.672;13.548;2023-02-10T03:49:10;0.10;96.60
71084;DHT22;58741;52.672;13.548;2023-02-10T03:51:36;0.20;97.30
71084;DHT22;58741;52.672;13.548;2023-02-10T03:54:01;0.20;97.70
71084;DHT22;58741;52.672;13.548;2023-02-10T03:56:27;0.20;97.50
71084;DHT22;58741;52.672;13.548;2023-02-10T03:58:52;0.20;97.40
71084;DHT22;58741;52.672;13.548;2023-02-10T04:01:18;0.30;97.20
71084;DHT22;58741;52.672;13.548;2023-02-10T04:03:44;0.30;97.10
71084;DHT22;58741;52.672;13.548;2023-02-10T04:06:11;0.30;96.90
71084;DHT22;58741;52.672;13.548;2023-02-10T04:08:37;0.40;97.10
71084;DHT22;58741;52.672;13.548;2023-02-10T04:11:04;0.30;96.90
71084;DHT22;58741;52.672;13.548;2023-02-10T04:13:30;0.30;97.50
71084;DHT22;58741;52.672;13.548;2023-02-10T04:16:07;0.30;97.10
71084;DHT22;58741;52.672;13.548;2023-02-10T04:18:33;0.30;97.90
71084;DHT22;58741;52.672;13.548;2023-02-10T04:21:03;0.30;97.60
71084;DHT22;58741;52.672;13.548;2023-02-10T04:23:29;0.30;97.40
71084;DHT22;58741;52.672;13.548;2023-02-10T04:25:55;0.30;97.80
71084;DHT22;58741;52.672;13.548;2023-02-10T04:28:21;0.30;97.90
71084;DHT22;58741;52.672;13.548;2023-02-10T04:30:53;0.40;98.30
71084;DHT22;58741;52.672;13.548;2023-02-10T04:33:20;0.40;98.00
71084;DHT22;58741;52.672;13.548;2023-02-10T04:35:49;0.40;98.00
71084;DHT22;58741;52.672;13.548;2023-02-10T04:38:15;0.40;98.00
71084;DHT22;58741;52.672;13.548;2023-02-10T04:40:41;0.40;97.90
71084;DHT22;58741;52.672;13.548;2023-02-10T04:43:08;0.40;98.10
71084;DHT22;58741;52.672;13.548;2023-02-10T04:45:34;0.40;98.50
71084;DHT22;58741;52.672;13.548;2023-02-10T04:47:59;0.50;99.00
71084;DHT22;58741;52.672;13.548;2023-02-10T04:50:25;0.50;99.70
71084;DHT22;58741;52.672;13.548;2023-02-10T04:52:51;0.50;99.40
71084;DHT22;58741;52.672;13.548;2023-02-10T04:55:16;0.50;99.20
71084;DHT22;58741;52.672;13.548;2023-02-10T04:57:43;0.50;99.00
71084;DHT22;58741;52.672;13.548;2023-02-10T05:00:09;0.50;98.90
71084;DHT22;58741;52.672;13.548;2023-02-10T05:02:35;0.50;98.80
71084;DHT22;58741;52.672;13.548;2023-02-10T05:05:01;0.50;99.30
71084;DHT22;58741;52.672;13.548;2023-02-10T05:07:26;0.50;99.20
71084;DHT22;58741;52.672;13.548;2023-02-10T05:09:52;0.50;99.30
71084;DHT22;58741;52.672;13.548;2023-02-10T05:12:18;0.50;99.90
71084;DHT22;58741;52.672;13.548;2023-02-10T05:14:43;0.50;99.60
71084;DHT22;58741;52.672;13.548;2023-02-10T05:17:09;0.50;99.20
71084;DHT22;58741;52.672;13.548;2023-02-10T05:19:34;0.40;99.80
71084;DHT22;58741;52.672;13.548;2023-02-10T05:22:00;0.40;99.90
71084;DHT22;58741;52.672;13.548;2023-02-10T05:24:25;0.40;99.50
71084;DHT22;58741;52.672;13.548;2023-02-10T05:26:51;0.40;99.60
71084;DHT22;58741;52.672;13.548;2023-02-10T05:29:17;0.30;99.40
71084;DHT22;58741;52.672;13.548;2023-02-10T05:31:42;0.30;99.70
71084;DHT22;58741;52.672;13.548;2023-02-10T05:34:08;0.30;99.80
71084;DHT22;58741;52.672;13.548;2023-02-10T05:36:33;0.30;99.90
71084;DHT22;58741;52.672;13.548;2023-02-10T05:38:59;0.20;99.70
71084;DHT22;58741;52.672;13.548;2023-02-10T05:41:43;0.20;99.90
71084;DHT22;58741;52.672;13.548;2023-02-10T05:44:09;0.20;99.90
71084;DHT22;58741;52.672;13.548;2023-02-10T05:46:34;0.20;99.90
71084;DHT22;58741;52.672;13.548;2023-02-10T05:49:00;0.20;99.90
71084;DHT22;58741;52.672;13.548;2023-02-10T05:51:25;0.10;99.80
71084;DHT22;58741;52.672;13.548;2023-02-10T05:53:51;0.10;99.90
71084;DHT22;58741;52.672;13.548;2023-02-10T05:56:17;0.10;99.90
71084;DHT22;58741;52.672;13.548;2023-02-10T05:58:43;0.10;99.80
71084;DHT22;58741;52.672;13.548;2023-02-10T06:01:10;0.10;99.90
71084;DHT22;58741;52.672;13.548;2023-02-10T06:03:36;0.00;99.90
71084;DHT22;58741;52.672;13.548;2023-02-10T06:06:02;0.00;99.90
71084;DHT22;58741;52.672;13.548;2023-02-10T06:08:27;0.00;99.90
71084;DHT22;58741;52.672;13.548;2023-02-10T06:10:53;-0.10;99.60
71084;DHT22;58741;52.672;13.548;2023-02-10T06:13:19;-0.10;99.90
71084;DHT22;58741;52.672;13.548;2023-02-10T06:15:44;-0.10;99.90
71084;DHT22;58741;52.672;13.548;2023-02-10T06:18:10;-0.10;99.90
71084;DHT22;58741;52.672;13.548;2023-02-10T06:20:36;-0.20;99.90
71084;DHT22;58741;52.672;13.548;2023-02-10T06:23:01;-0.20;99.90
71084;DHT22;58741;52.672;13.548;2023-02-10T06:25:27;-0.20;99.90
71084;DHT22;58741;52.672;13.548;2023-02-10T06:27:53;-0.20;99.90
71084;DHT22;58741;52.672;13.548;2023-02-10T06:30:19;-0.20;99.90
71084;DHT22;58741;52.672;13.548;2023-02-10T06:32:45;-0.20;99.90
71084;DHT22;58741;52.672;13.548;2023-02-10T06:35:10;-0.20;99.90
71084;DHT22;58741;52.672;13.548;2023-02-10T06:37:36;-0.20;99.90
71084;DHT22;58741;52.672;13.548;2023-02-10T06:40:03;-0.20;99.90
71084;DHT22;58741;52.672;13.548;2023-02-10T06:42:29;-0.20;99.90
71084;DHT22;58741;52.672;13.548;2023-02-10T06:44:55;-0.20;99.90
71084;DHT22;58741;52.672;13.548;2023-02-10T06:47:21;-0.20;99.90
71084;DHT22;58741;52.672;13.548;2023-02-10T06:49:47;-0.20;99.90
71084;DHT22;58741;52.672;13.548;2023-02-10T06:52:12;-0.20;99.90
71084;DHT22;58741;52.672;13.548;2023-02-10T06:54:38;-0.20;99.90
71084;DHT22;58741;52.672;13.548;2023-02-10T06:57:03;-0.20;99.90
71084;DHT22;58741;52.672;13.548;2023-02-10T06:59:29;-0.20;99.90
71084;DHT22;58741;52.672;13.548;2023-02-10T07:01:55;-0.10;99.90
71084;DHT22;58741;52.672;13.548;2023-02-10T07:04:29;-0.10;99.90
71084;DHT22;58741;52.672;13.548;2023-02-10T07:06:56;-0.10;99.90
71084;DHT22;58741;52.672;13.548;2023-02-10T07:09:22;0.00;99.90
71084;DHT22;58741;52.672;13.548;2023-02-10T07:11:48;0.00;99.90
71084;DHT22;58741;52.672;13.548;2023-02-10T07:14:14;0.00;99.90
71084;DHT22;58741;52.672;13.548;2023-02-10T07:16:39;0.00;99.90
71084;DHT22;58741;52.672;13.548;2023-02-10T07:19:05;0.00;99.90
71084;DHT22;58741;52.672;13.548;2023-02-10T07:21:30;0.00;99.90
71084;DHT22;58741;52.672;13.548;2023-02-10T07:23:56;0.10;99.90
71084;DHT22;58741;52.672;13.548;2023-02-10T07:26:22;0.10;99.90
71084;DHT22;58741;52.672;13.548;2023-02-10T07:28:48;0.10;99.90
71084;DHT22;58741;52.672;13.548;2023-02-10T07:31:13;0.10;99.90
71084;DHT22;58741;52.672;13.548;2023-02-10T07:33:39;0.20;99.90
71084;DHT22;58741;52.672;13.548;2023-02-10T07:36:05;0.20;99.90
71084;DHT22;58741;52.672;13.548;2023-02-10T07:38:32;0.30;99.90
71084;DHT22;58741;52.672;13.548;2023-02-10T07:40:58;0.30;99.90
71084;DHT22;58741;52.672;13.548;2023-02-10T07:43:23;0.30;99.90
71084;DHT22;58741;52.672;13.548;2023-02-10T07:45:58;0.40;99.90
71084;DHT22;58741;52.672;13.548;2023-02-10T07:48:24;0.40;99.90
71084;DHT22;58741;52.672;13.548;2023-02-10T07:50:49;0.50;99.90
71084;DHT22;58741;52.672;13.548;2023-02-10T07:53:17;0.50;99.90
71084;DHT22;58741;52.672;13.548;2023-02-10T07:55:42;0.60;99.90
71084;DHT22;58741;52.672;13.548;2023-02-10T07:58:08;0.60;99.90
71084;DHT22;58741;52.672;13.548;2023-02-10T08:00:34;0.60;99.90
71084;DHT22;58741;52.672;13.548;2023-02-10T08:02:59;0.70;99.90
71084;DHT22;58741;52.672;13.548;2023-02-10T08:05:25;0.70;99.90
71084;DHT22;58741;52.672;13.548;2023-02-10T08:07:51;0.80;99.90
71084;DHT22;58741;52.672;13.548;2023-02-10T08:10:18;0.80;99.90
71084;DHT22;58741;52.672;13.548;2023-02-10T08:12:43;0.90;99.90
71084;DHT22;58741;52.672;13.548;2023-02-10T08:15:10;0.90;99.90
71084;DHT22;58741;52.672;13.548;2023-02-10T08:17:36;1.00;99.90
71084;DHT22;58741;52.672;13.548;2023-02-10T08:20:07;1.10;99.90
71084;DHT22;58741;52.672;13.548;2023-02-10T08:22:33;1.10;99.90
71084;DHT22;58741;52.672;13.548;2023-02-10T08:25:00;1.20;99.90
71084;DHT22;58741;52.672;13.548;2023-02-10T08:27:25;1.30;99.90
71084;DHT22;58741;52.672;13.548;2023-02-10T08:29:51;1.30;99.90
71084;DHT22;58741;52.672;13.548;2023-02-10T08:32:17;1.40;99.90
71084;DHT22;58741;52.672;13.548;2023-02-10T08:34:46;1.40;99.90
71084;DHT22;58741;52.672;13.548;2023-02-10T08:37:11;1.50;99.90
71084;DHT22;58741;52.672;13.548;2023-02-10T08:39:37;1.50;99.90
71084;DHT22;58741;52.672;13.548;2023-02-10T08:42:03;1.60;99.90
71084;DHT22;58741;52.672;13.548;2023-02-10T08:44:29;1.60;99.90
71084;DHT22;58741;52.672;13.548;2023-02-10T08:46:54;1.70;99.90
71084;DHT22;58741;52.672;13.548;2023-02-10T08:49:20;1.80;99.90
71084;DHT22;58741;52.672;13.548;2023-02-10T08:51:47;1.80;99.90
71084;DHT22;58741;52.672;13.548;2023-02-10T08:54:13;1.90;99.90
71084;DHT22;58741;52.672;13.548;2023-02-10T08:56:39;2.00;99.90
71084;DHT22;58741;52.672;13.548;2023-02-10T08:59:05;2.20;99.90
71084;DHT22;58741;52.672;13.548;2023-02-10T09:01:30;2.30;99.90
71084;DHT22;58741;52.672;13.548;2023-02-10T09:03:56;2.40;99.90
71084;DHT22;58741;52.672;13.548;2023-02-10T09:06:28;2.50;99.90
71084;DHT22;58741;52.672;13.548;2023-02-10T09:08:55;2.60;99.90
71084;DHT22;58741;52.672;13.548;2023-02-10T09:11:22;2.70;99.90
71084;DHT22;58741;52.672;13.548;2023-02-10T09:13:49;2.90;99.90
71084;DHT22;58741;52.672;13.548;2023-02-10T09:16:15;2.90;99.90
71084;DHT22;58741;52.672;13.548;2023-02-10T09:18:41;3.00;99.90
71084;DHT22;58741;52.672;13.548;2023-02-10T09:23:42;3.10;99.90
71084;DHT22;58741;52.672;13.548;2023-02-10T09:26:07;3.20;99.90
71084;DHT22;58741;52.672;13.548;2023-02-10T09:28:33;3.20;99.90
71084;DHT22;58741;52.672;13.548;2023-02-10T09:31:00;3.20;99.90
71084;DHT22;58741;52.672;13.548;2023-02-10T09:33:25;3.20;99.90
71084;DHT22;58741;52.672;13.548;2023-02-10T09:35:51;3.30;99.90
71084;DHT22;58741;52.672;13.548;2023-02-10T09:38:17;3.30;99.90
71084;DHT22;58741;52.672;13.548;2023-02-10T09:40:52;3.30;99.90
71084;DHT22;58741;52.672;13.548;2023-02-10T09:43:51;3.30;99.90
71084;DHT22;58741;52.672;13.548;2023-02-10T09:52:29;3.60;99.90
71084;DHT22;58741;52.672;13.548;2023-02-10T09:54:58;3.70;99.90
71084;DHT22;58741;52.672;13.548;2023-02-10T09:57:37;3.80;99.50
71084;DHT22;58741;52.672;13.548;2023-02-10T10:00:05;3.90;99.20
71084;DHT22;58741;52.672;13.548;2023-02-10T10:02:49;3.90;98.70
71084;DHT22;58741;52.672;13.548;2023-02-10T10:08:20;4.00;98.10
71084;DHT22;58741;52.672;13.548;2023-02-10T10:10:47;3.90;98.30
71084;DHT22;58741;52.672;13.548;2023-02-10T10:13:24;4.00;98.40
71084;DHT22;58741;52.672;13.548;2023-02-10T10:21:51;4.10;98.40
71084;DHT22;58741;52.672;13.548;2023-02-10T10:30:36;4.20;97.90
71084;DHT22;58741;52.672;13.548;2023-02-10T10:35:47;4.20;98.30
71084;DHT22;58741;52.672;13.548;2023-02-10T10:38:18;4.20;98.20
71084;DHT22;58741;52.672;13.548;2023-02-10T10:40:46;4.20;98.20
71084;DHT22;58741;52.672;13.548;2023-02-10T10:43:26;4.20;98.30
71084;DHT22;58741;52.672;13.548;2023-02-10T10:45:57;4.30;98.40
71084;DHT22;58741;52.672;13.548;2023-02-10T10:48:26;4.30;98.30
71084;DHT22;58741;52.672;13.548;2023-02-10T10:50:59;4.40;98.10
71084;DHT22;58741;52.672;13.548;2023-02-10T10:53:39;4.50;97.80
71084;DHT22;58741;52.672;13.548;2023-02-10T10:59:02;4.60;97.50
71084;DHT22;58741;52.672;13.548;2023-02-10T11:01:38;4.60;97.50
71084;DHT22;58741;52.672;13.548;2023-02-10T11:04:12;4.70;97.00
71084;DHT22;58741;52.672;13.548;2023-02-10T11:06:39;4.80;96.70
71084;DHT22;58741;52.672;13.548;2023-02-10T11:09:35;4.90;97.30
71084;DHT22;58741;52.672;13.548;2023-02-10T11:12:06;5.00;97.00
71084;DHT22;58741;52.672;13.548;2023-02-10T11:14:41;5.10;96.20
71084;DHT22;58741;52.672;13.548;2023-02-10T11:19:53;5.30;95.70
71084;DHT22;58741;52.672;13.548;2023-02-10T11:22:20;5.40;95.00
71084;DHT22;58741;52.672;13.548;2023-02-10T11:24:55;5.40;94.50
71084;DHT22;58741;52.672;13.548;2023-02-10T11:27:22;5.50;95.60
71084;DHT22;58741;52.672;13.548;2023-02-10T11:29:58;5.60;95.30
71084;DHT22;58741;52.672;13.548;2023-02-10T11:32:33;5.80;93.90
71084;DHT22;58741;52.672;13.548;2023-02-10T11:35:00;5.80;93.60
71084;DHT22;58741;52.672;13.548;2023-02-10T11:37:34;5.90;93.20
71084;DHT22;58741;52.672;13.548;2023-02-10T11:40:16;5.90;93.40
71084;DHT22;58741;52.672;13.548;2023-02-10T11:42:47;6.00;93.90
71084;DHT22;58741;52.672;13.548;2023-02-10T11:45:36;6.00;93.60
71084;DHT22;58741;52.672;13.548;2023-02-10T11:48:24;6.00;92.80
71084;DHT22;58741;52.672;13.548;2023-02-10T11:51:14;6.10;93.20
71084;DHT22;58741;52.672;13.548;2023-02-10T11:53:41;6.20;93.00
71084;DHT22;58741;52.672;13.548;2023-02-10T11:59:22;6.30;92.30
71084;DHT22;58741;52.672;13.548;2023-02-10T12:01:53;6.30;91.90
71084;DHT22;58741;52.672;13.548;2023-02-10T12:04:42;6.30;91.90
71084;DHT22;58741;52.672;13.548;2023-02-10T12:12:44;6.20;91.70
71084;DHT22;58741;52.672;13.548;2023-02-10T12:15:41;6.20;91.80
71084;DHT22;58741;52.672;13.548;2023-02-10T12:18:58;6.10;92.00
71084;DHT22;58741;52.672;13.548;2023-02-10T12:24:29;6.10;92.10
71084;DHT22;58741;52.672;13.548;2023-02-10T12:30:22;6.00;92.00
71084;DHT22;58741;52.672;13.548;2023-02-10T12:32:53;6.00;92.50
71084;DHT22;58741;52.672;13.548;2023-02-10T12:35:33;6.00;92.30
71084;DHT22;58741;52.672;13.548;2023-02-10T12:38:05;6.00;92.10
71084;DHT22;58741;52.672;13.548;2023-02-10T12:40:49;6.00;92.40
71084;DHT22;58741;52.672;13.548;2023-02-10T12:43:38;6.10;92.50
71084;DHT22;58741;52.672;13.548;2023-02-10T13:00:30;6.10;92.50
71084;DHT22;58741;52.672;13.548;2023-02-10T13:03:03;6.10;92.20
71084;DHT22;58741;52.672;13.548;2023-02-10T13:05:47;6.10;92.10
71084;DHT22;58741;52.672;13.548;2023-02-10T13:08:33;6.10;92.20
71084;DHT22;58741;52.672;13.548;2023-02-10T13:11:09;6.10;92.30
71084;DHT22;58741;52.672;13.548;2023-02-10T13:13:36;6.10;92.30
71084;DHT22;58741;52.672;13.548;2023-02-10T13:16:06;6.10;92.30
71084;DHT22;58741;52.672;13.548;2023-02-10T13:18:52;6.10;92.30
71084;DHT22;58741;52.672;13.548;2023-02-10T13:21:37;6.10;92.60
71084;DHT22;58741;52.672;13.548;2023-02-10T13:24:20;6.10;92.50
71084;DHT22;58741;52.672;13.548;2023-02-10T13:27:30;6.10;92.40
71084;DHT22;58741;52.672;13.548;2023-02-10T13:29:47;6.10;92.30
71084;DHT22;58741;52.672;13.548;2023-02-10T13:34:52;6.20;92.40
71084;DHT22;58741;52.672;13.548;2023-02-10T13:37:35;6.10;92.10
71084;DHT22;58741;52.672;13.548;2023-02-10T13:40:26;6.10;92.00
71084;DHT22;58741;52.672;13.548;2023-02-10T13:42:56;6.10;92.10
71084;DHT22;58741;52.672;13.548;2023-02-10T13:45:49;6.00;92.20
71084;DHT22;58741;52.672;13.548;2023-02-10T13:48:22;6.00;92.40
71084;DHT22;58741;52.672;13.548;2023-02-10T13:50:59;6.00;92.30
71084;DHT22;58741;52.672;13.548;2023-02-10T14:01:50;6.10;92.20
71084;DHT22;58741;52.672;13.548;2023-02-10T14:04:46;6.10;92.10
71084;DHT22;58741;52.672;13.548;2023-02-10T14:10:45;6.00;92.20
71084;DHT22;58741;52.672;13.548;2023-02-10T14:13:20;6.00;92.20
71084;DHT22;58741;52.672;13.548;2023-02-10T14:18:37;6.00;92.50
71084;DHT22;58741;52.672;13.548;2023-02-10T14:21:11;6.00;92.60
71084;DHT22;58741;52.672;13.548;2023-02-10T14:23:40;6.00;92.70
71084;DHT22;58741;52.672;13.548;2023-02-10T14:26:19;6.00;92.80
71084;DHT22;58741;52.672;13.548;2023-02-10T14:28:55;6.00;92.80
71084;DHT22;58741;52.672;13.548;2023-02-10T14:31:29;6.10;92.60
71084;DHT22;58741;52.672;13.548;2023-02-10T14:34:02;6.10;92.50
71084;DHT22;58741;52.672;13.548;2023-02-10T14:36:29;6.10;92.60
71084;DHT22;58741;52.672;13.548;2023-02-10T14:39:00;6.10;92.60
71084;DHT22;58741;52.672;13.548;2023-02-10T14:41:28;6.10;92.60
71084;DHT22;58741;52.672;13.548;2023-02-10T14:43:55;6.10;92.30
71084;DHT22;58741;52.672;13.548;2023-02-10T14:46:24;6.00;92.30
71084;DHT22;58741;52.672;13.548;2023-02-10T14:48:57;6.00;92.20
71084;DHT22;58741;52.672;13.548;2023-02-10T14:51:24;6.00;92.30
71084;DHT22;58741;52.672;13.548;2023-02-10T14:53:50;6.00;92.40
71084;DHT22;58741;52.672;13.548;2023-02-10T14:56:23;6.00;92.30
71084;DHT22;58741;52.672;13.548;2023-02-10T14:58:49;6.00;92.30
71084;DHT22;58741;52.672;13.548;2023-02-10T15:01:29;6.00;92.20
71084;DHT22;58741;52.672;13.548;2023-02-10T15:03:56;6.00;92.30
71084;DHT22;58741;52.672;13.548;2023-02-10T15:06:25;6.00;92.20
71084;DHT22;58741;52.672;13.548;2023-02-10T15:09:13;6.00;92.30
71084;DHT22;58741;52.672;13.548;2023-02-10T15:11:45;5.90;92.00
71084;DHT22;58741;52.672;13.548;2023-02-10T15:14:51;5.90;92.20
71084;DHT22;58741;52.672;13.548;2023-02-10T15:17:25;5.80;92.10
71084;DHT22;58741;52.672;13.548;2023-02-10T15:19:58;5.80;92.20
71084;DHT22;58741;52.672;13.548;2023-02-10T15:22:37;5.80;92.20
71084;DHT22;58741;52.672;13.548;2023-02-10T15:27:48;5.70;92.30
71084;DHT22;58741;52.672;13.548;2023-02-10T15:36:20;5.50;92.20
71084;DHT22;58741;52.672;13.548;2023-02-10T15:38:53;5.40;92.50
71084;DHT22;58741;52.672;13.548;2023-02-10T15:41:58;5.30;92.80
71084;DHT22;58741;52.672;13.548;2023-02-10T15:44:35;5.30;92.90
71084;DHT22;58741;52.672;13.548;2023-02-10T15:49:48;5.20;93.30
71084;DHT22;58741;52.672;13.548;2023-02-10T15:52:31;5.10;93.20
71084;DHT22;58741;52.672;13.548;2023-02-10T15:55:03;5.00;93.50
71084;DHT22;58741;52.672;13.548;2023-02-10T15:57:30;5.00;93.50
71084;DHT22;58741;52.672;13.548;2023-02-10T15:59:56;5.00;93.50
71084;DHT22;58741;52.672;13.548;2023-02-10T16:02:22;5.00;93.50
71084;DHT22;58741;52.672;13.548;2023-02-10T16:04:51;5.00;93.60
71084;DHT22;58741;52.672;13.548;2023-02-10T16:07:24;4.90;93.70
71084;DHT22;58741;52.672;13.548;2023-02-10T16:09:52;4.90;93.80
71084;DHT22;58741;52.672;13.548;2023-02-10T16:12:18;4.90;93.70
71084;DHT22;58741;52.672;13.548;2023-02-10T16:14:44;4.90;93.90
71084;DHT22;58741;52.672;13.548;2023-02-10T16:17:25;4.90;93.90
71084;DHT22;58741;52.672;13.548;2023-02-10T16:19:52;4.80;94.10
71084;DHT22;58741;52.672;13.548;2023-02-10T16:22:18;4.80;94.00
71084;DHT22;58741;52.672;13.548;2023-02-10T16:24:44;4.80;94.00
71084;DHT22;58741;52.672;13.548;2023-02-10T16:27:11;4.70;94.00
71084;DHT22;58741;52.672;13.548;2023-02-10T16:29:37;4.70;94.00
71084;DHT22;58741;52.672;13.548;2023-02-10T16:32:04;4.60;94.00
71084;DHT22;58741;52.672;13.548;2023-02-10T16:34:29;4.60;94.20
71084;DHT22;58741;52.672;13.548;2023-02-10T16:36:59;4.50;94.20
71084;DHT22;58741;52.672;13.548;2023-02-10T16:39:24;4.50;94.30
71084;DHT22;58741;52.672;13.548;2023-02-10T16:41:51;4.40;94.40
71084;DHT22;58741;52.672;13.548;2023-02-10T16:44:17;4.40;94.70
71084;DHT22;58741;52.672;13.548;2023-02-10T16:46:44;4.30;94.40
71084;DHT22;58741;52.672;13.548;2023-02-10T16:49:11;4.30;94.50
71084;DHT22;58741;52.672;13.548;2023-02-10T16:51:37;4.20;94.60
71084;DHT22;58741;52.672;13.548;2023-02-10T16:54:02;4.20;95.20
71084;DHT22;58741;52.672;13.548;2023-02-10T16:56:35;4.10;95.10
71084;DHT22;58741;52.672;13.548;2023-02-10T16:59:02;4.10;95.20
71084;DHT22;58741;52.672;13.548;2023-02-10T17:01:28;4.00;94.90
71084;DHT22;58741;52.672;13.548;2023-02-10T17:03:56;4.00;95.00
71084;DHT22;58741;52.672;13.548;2023-02-10T17:06:22;3.90;95.30
71084;DHT22;58741;52.672;13.548;2023-02-10T17:08:48;3.90;95.50
71084;DHT22;58741;52.672;13.548;2023-02-10T17:11:14;3.90;95.80
71084;DHT22;58741;52.672;13.548;2023-02-10T17:13:39;3.80;95.70
71084;DHT22;58741;52.672;13.548;2023-02-10T17:16:05;3.80;96.40
71084;DHT22;58741;52.672;13.548;2023-02-10T17:18:31;3.80;97.20
71084;DHT22;58741;52.672;13.548;2023-02-10T17:20:56;3.80;96.80
71084;DHT22;58741;52.672;13.548;2023-02-10T17:23:22;3.80;97.00
71084;DHT22;58741;52.672;13.548;2023-02-10T17:25:47;3.70;96.70
71084;DHT22;58741;52.672;13.548;2023-02-10T17:28:15;3.80;97.00